Gemini Flying Field

IT-0382 · Apulia, Włochy

Historia METAR IT-0382 · Gemini Flying Field

Poniżej widzisz METAR-y z ostatnich kilku dni. Wybierz rok, aby przeglądać starsze METAR-y, począwszy od roku 2007.

18 lipca 2024

Czas Kod Pogoda Temp. Widoczność Sufit Wiatr METAR/SPECI
08:55
V
32 °C 10 km+ - 020° 020° 18 kt METAR LIBY 180655Z 02018KT CAVOK 32/17 Q1013 RMK SKC QUK 3 QUL 1 N VIS MAR 30 KM VIS MAX 30 KM VIS MIN 9999
07:55
V
30 °C 10 km+ - 010° 010° 16 kt METAR LIBY 180555Z 01016KT CAVOK 30/18 Q1012 RMK SKC QUK 3 QUL 1 N VIS MAR 30 KM VIS MAX 30 KM VIS MIN 9999
06:55
U
28 °C 0 m - 010° 010° 17 kt METAR LIBY 180455Z AUTO 01017KT //// 28/18 Q1012
05:55
U
28 °C 0 m - 010° 010° 19 kt METAR LIBY 180355Z AUTO 01019KT //// 28/16 Q1012
04:55
U
28 °C 0 m - 360° 360° 15 kt METAR LIBY 180255Z AUTO 36015KT //// 28/14 Q1012

17 lipca 2024

Czas Kod Pogoda Temp. Widoczność Sufit Wiatr METAR/SPECI
22:55
U
29 °C 0 m - 350° 350° 9 kt METAR LIBY 172055Z AUTO 35009KT //// 29/16 Q1012
21:55
U
30 °C 0 m - 320° 320° 6 kt METAR LIBY 171955Z AUTO 32006KT //// 30/17 Q1013
20:55
U
31 °C 0 m - 350° 350° 4 kt METAR LIBY 171855Z AUTO 35004KT //// 31/19 Q1012
19:55
V
33 °C 10 km+ - 020° 020° 10 kt METAR LIBY 171755Z 02010KT CAVOK 33/15 Q1012 RMK FEW FEW200 QUK 1 QUL 0 VIS MAR 30 KM VIS MAX 30 KM VIS MIN 9999
15:55
V
32 °C 10 km+ - 180° 180° 6 kt METAR LIBY 171355Z 18006KT 140V220 CAVOK 32/21 Q1011 RMK SKC QUK 2 QUL 1 S VIS MAR 30 KM VIS MAX 30 KM VIS MIN 9999
14:55
V
32 °C 10 km+ - 210° 210° 6 kt METAR LIBY 171255Z 21006KT 150V260 CAVOK 32/22 Q1012 RMK SKC QUK 2 QUL 1 S VIS MAR 30 KM VIS MAX 30 KM VIS MIN 9999
13:55
V
33 °C 10 km+ - 210° 210° 6 kt METAR LIBY 171155Z 21006KT 170V260 CAVOK 33/20 Q1012 RMK SKC QUK 2 QUL 1 S VIS MAR 30 KM VIS MAX 30 KM VIS MIN 9999
12:55
V
32 °C 10 km+ - 230° 230° 7 kt METAR LIBY 171055Z 23007KT CAVOK 32/20 Q1012 RMK SKC QUK 2 QUL 1 SE VIS MAR 30 KM VIS MAX 30 KM VIS MIN 9999
11:55
V
32 °C 10 km+ - 230° 230° 9 kt METAR LIBY 170955Z 23009KT 200V270 CAVOK 32/21 Q1012 RMK SKC QUK 3 QUL 1 N VIS MAR 30 KM VIS MAX 30 KM VIS MIN 9999
10:55
V
35 °C 10 km+ - 040° 040° 9 kt METAR LIBY 170855Z 04009KT 010V090 CAVOK 35/18 Q1012 RMK SKC QUK 3 QUL 1 N VIS MAR 30 KM VIS MAX 30 KM VIS MIN 9999
09:55
V
34 °C 10 km+ - 030° 030° 10 kt METAR LIBY 170755Z 03010KT 360V070 CAVOK 34/16 Q1012 RMK SKC QUK 3 QUL 1 N VIS MAR 30 KM VIS MAX 30 KM VIS MIN 9999
08:55
V
33 °C 10 km+ - 030° 030° 15 kt METAR LIBY 170655Z 03015KT CAVOK 33/14 Q1011 RMK SKC QUK 3 QUL 1 N VIS MAR 30 KM VIS MAX 30 KM VIS MIN 9999
07:55
V
31 °C 10 km+ - 020° 020° 14 kt METAR LIBY 170555Z 02014KT CAVOK 31/14 Q1011 RMK SKC QUK 3 QUL 1 N VIS MAR 30 KM VIS MAX 30 KM VIS MIN 9999
06:55
U
30 °C 0 m - 010° 010° 14 kt METAR LIBY 170455Z AUTO 01014KT //// 30/14 Q1011
05:55
U
28 °C 0 m - 010° 010° 13 kt METAR LIBY 170355Z AUTO 01013KT //// 28/14 Q1010
04:55
U
27 °C 0 m - 010° 010° 12 kt METAR LIBY 170255Z AUTO 01012KT //// 27/14 Q1010
01:55
U
28 °C 0 m - 020° 020° 12 kt METAR LIBY 162355Z AUTO 02012KT //// 28/17 Q1010
00:55
U
29 °C 0 m - 010° 010° 14 kt METAR LIBY 162255Z AUTO 01014KT //// 29/17 Q1010

16 lipca 2024

Czas Kod Pogoda Temp. Widoczność Sufit Wiatr METAR/SPECI
23:55
U
29 °C 0 m - 020° 020° 11 kt METAR LIBY 162155Z AUTO 02011KT //// 29/16 Q1010
22:55
U
29 °C 0 m - 010° 010° 8 kt METAR LIBY 162055Z AUTO 01008KT //// 29/13 Q1010
21:55
U
29 °C 0 m - 020° 020° 6 kt METAR LIBY 161955Z AUTO 02006KT //// 29/21 Q1010
20:55
U
29 °C 0 m - 280° 280° 6 kt METAR LIBY 161855Z AUTO 28006KT //// 29/23 Q1010
19:55
U
30 °C 0 m - 270° 270° 9 kt METAR LIBY 161755Z AUTO 27009KT //// 30/22 Q1010
18:55
V
31 °C 10 km+ - 270° 270° 10 kt METAR LIBY 161655Z 27010KT CAVOK 31/21 Q1009 RMK SKC QUK 1 QUL 0 VIS MAR 15 KM VIS MIN 9999
17:55
V
33 °C 10 km+ - 270° 270° 6 kt METAR LIBY 161555Z 27006KT 220V310 CAVOK 33/20 Q1009 RMK SKC QUK 1 QUL 0 VIS MAR 15 KM VIS MIN 9999
16:55
V
35 °C 10 km+ - 050° 050° 12 kt METAR LIBY 161455Z 05012KT CAVOK 35/17 Q1009 RMK SKC QUK 1 QUL 0 VIS MAR 15 KM VIS MIN 9999
15:55
V
34 °C 10 km+ - 060° 060° 11 kt METAR LIBY 161355Z 06011KT CAVOK 34/20 Q1010 RMK SKC QUK 2 QUL 1 W VIS MAR 15 KM VIS MIN 9999
14:55
V
33 °C 10 km+ - 200° 200° 6 kt METAR LIBY 161255Z 20006KT 120V240 CAVOK 33/19 Q1010 RMK SKC QUK 2 QUL 1 W VIS MAR 15 KM VIS MIN 9999
13:55
V
32 °C 10 km+ - 200° 200° 5 kt METAR LIBY 161155Z 20005KT 160V260 CAVOK 32/21 Q1010 RMK SKC QUK 2 QUL 1 W VIS MAR 15 KM VIS MIN 9999
11:55
V
32 °C 10 km+ - 230° 230° 8 kt METAR LIBY 160955Z 23008KT CAVOK 32/22 Q1010 RMK SKC QUK 2 QUL 1 NW VIS MAR 20 KM VIS MIN 9999
10:55
V
34 °C 10 km+ - 040° 040° 12 kt METAR LIBY 160855Z 04012KT CAVOK 34/18 Q1010 RMK SKC QUK 2 QUL 1 N VIS MAR 20 KM VIS MIN 9999
09:55
V
35 °C 10 km+ - 030° 030° 11 kt METAR LIBY 160755Z 03011KT 360V080 CAVOK 35/15 Q1010 RMK SKC QUK 2 QUL 1 N VIS MAR 20 KM VIS MIN 9999
08:55
V
33 °C 10 km+ - 020° 020° 16 kt METAR LIBY 160655Z 02016KT CAVOK 33/15 Q1010 RMK SKC QUK 2 QUL 1 N VIS MAR 20 KM VIS MIN 9999
07:55
V
30 °C 10 km+ - 020° 020° 13 kt METAR LIBY 160555Z 02013KT CAVOK 30/16 Q1010 RMK SKC QUK 2 QUL 1 N VIS MAR 20 KM VIS MIN 9999
Zgłoś zmianę